sensor_id;sensor_type;location;lat;lon;timestamp;temperature;humidity
2757;DHT22;1386;50.862;6.494;2022-09-12T00:00:33;15.40;99.90
2757;DHT22;1386;50.862;6.494;2022-09-12T00:03:00;15.30;99.90
2757;DHT22;1386;50.862;6.494;2022-09-12T00:05:28;15.40;99.90
2757;DHT22;1386;50.862;6.494;2022-09-12T00:07:55;15.30;99.90
2757;DHT22;1386;50.862;6.494;2022-09-12T00:10:22;15.30;99.90
2757;DHT22;1386;50.862;6.494;2022-09-12T00:12:49;15.30;99.90
2757;DHT22;1386;50.862;6.494;2022-09-12T00:15:16;15.20;99.90
2757;DHT22;1386;50.862;6.494;2022-09-12T00:17:43;15.20;99.90
2757;DHT22;1386;50.862;6.494;2022-09-12T00:20:10;15.10;99.90
2757;DHT22;1386;50.862;6.494;2022-09-12T00:22:38;15.10;99.90
2757;DHT22;1386;50.862;6.494;2022-09-12T00:25:05;15.10;99.90
2757;DHT22;1386;50.862;6.494;2022-09-12T00:27:33;15.10;99.90
2757;DHT22;1386;50.862;6.494;2022-09-12T00:30:00;15.00;99.90
2757;DHT22;1386;50.862;6.494;2022-09-12T00:32:26;15.00;99.90
2757;DHT22;1386;50.862;6.494;2022-09-12T00:34:53;15.00;99.90
2757;DHT22;1386;50.862;6.494;2022-09-12T00:37:20;15.00;99.90
2757;DHT22;1386;50.862;6.494;2022-09-12T00:39:48;15.00;99.90
2757;DHT22;1386;50.862;6.494;2022-09-12T00:42:15;15.10;99.90
2757;DHT22;1386;50.862;6.494;2022-09-12T00:44:48;15.10;99.90
2757;DHT22;1386;50.862;6.494;2022-09-12T00:47:20;15.10;99.90
2757;DHT22;1386;50.862;6.494;2022-09-12T00:49:50;15.00;99.90
2757;DHT22;1386;50.862;6.494;2022-09-12T00:52:22;15.00;99.90
2757;DHT22;1386;50.862;6.494;2022-09-12T00:54:54;14.90;99.90
2757;DHT22;1386;50.862;6.494;2022-09-12T00:57:28;14.90;99.90
2757;DHT22;1386;50.862;6.494;2022-09-12T01:00:00;14.90;99.90
2757;DHT22;1386;50.862;6.494;2022-09-12T01:02:29;14.80;99.90
2757;DHT22;1386;50.862;6.494;2022-09-12T01:04:56;14.80;99.90
2757;DHT22;1386;50.862;6.494;2022-09-12T01:07:23;14.80;99.90
2757;DHT22;1386;50.862;6.494;2022-09-12T01:09:51;14.70;99.90
2757;DHT22;1386;50.862;6.494;2022-09-12T01:12:19;14.70;99.90
2757;DHT22;1386;50.862;6.494;2022-09-12T01:14:46;14.70;99.90
2757;DHT22;1386;50.862;6.494;2022-09-12T01:17:13;14.70;99.90
2757;DHT22;1386;50.862;6.494;2022-09-12T01:20:20;14.60;99.90
2757;DHT22;1386;50.862;6.494;2022-09-12T01:23:19;14.60;99.90
2757;DHT22;1386;50.862;6.494;2022-09-12T01:26:06;14.60;99.90
2757;DHT22;1386;50.862;6.494;2022-09-12T01:29:02;14.60;99.90
2757;DHT22;1386;50.862;6.494;2022-09-12T01:31:41;14.50;99.90
2757;DHT22;1386;50.862;6.494;2022-09-12T01:34:17;14.50;99.90
2757;DHT22;1386;50.862;6.494;2022-09-12T01:36:56;14.50;99.90
2757;DHT22;1386;50.862;6.494;2022-09-12T01:39:28;14.50;99.90
2757;DHT22;1386;50.862;6.494;2022-09-12T01:42:09;14.40;99.90
2757;DHT22;1386;50.862;6.494;2022-09-12T01:44:47;14.40;99.90
2757;DHT22;1386;50.862;6.494;2022-09-12T01:47:20;14.40;99.90
2757;DHT22;1386;50.862;6.494;2022-09-12T01:49:54;14.40;99.90
2757;DHT22;1386;50.862;6.494;2022-09-12T01:52:26;14.40;99.90
2757;DHT22;1386;50.862;6.494;2022-09-12T01:54:59;14.30;99.90
2757;DHT22;1386;50.862;6.494;2022-09-12T01:57:31;14.30;99.90
2757;DHT22;1386;50.862;6.494;2022-09-12T02:00:05;14.30;99.90
2757;DHT22;1386;50.862;6.494;2022-09-12T02:02:36;14.30;99.90
2757;DHT22;1386;50.862;6.494;2022-09-12T02:05:08;14.40;99.90
2757;DHT22;1386;50.862;6.494;2022-09-12T02:07:38;14.40;99.90
2757;DHT22;1386;50.862;6.494;2022-09-12T02:10:09;14.30;99.90
2757;DHT22;1386;50.862;6.494;2022-09-12T02:12:41;14.30;99.90
2757;DHT22;1386;50.862;6.494;2022-09-12T02:15:11;14.20;99.90
2757;DHT22;1386;50.862;6.494;2022-09-12T02:17:42;14.20;99.90
2757;DHT22;1386;50.862;6.494;2022-09-12T02:20:14;14.10;99.90
2757;DHT22;1386;50.862;6.494;2022-09-12T02:22:43;14.10;99.90
2757;DHT22;1386;50.862;6.494;2022-09-12T02:25:11;14.10;99.90
2757;DHT22;1386;50.862;6.494;2022-09-12T02:27:44;14.10;99.90
2757;DHT22;1386;50.862;6.494;2022-09-12T02:30:13;14.10;99.90
2757;DHT22;1386;50.862;6.494;2022-09-12T02:32:48;14.10;99.90
2757;DHT22;1386;50.862;6.494;2022-09-12T02:35:24;14.10;99.90
2757;DHT22;1386;50.862;6.494;2022-09-12T02:37:58;14.10;99.90
2757;DHT22;1386;50.862;6.494;2022-09-12T02:40:27;14.00;99.90
2757;DHT22;1386;50.862;6.494;2022-09-12T02:42:55;14.00;99.90
2757;DHT22;1386;50.862;6.494;2022-09-12T02:45:22;14.00;99.90
2757;DHT22;1386;50.862;6.494;2022-09-12T02:47:53;14.00;99.90
2757;DHT22;1386;50.862;6.494;2022-09-12T02:50:23;14.00;99.90
2757;DHT22;1386;50.862;6.494;2022-09-12T02:52:50;13.90;99.90
2757;DHT22;1386;50.862;6.494;2022-09-12T02:55:18;13.90;99.90
2757;DHT22;1386;50.862;6.494;2022-09-12T02:57:46;13.90;99.90
2757;DHT22;1386;50.862;6.494;2022-09-12T03:57:54;13.80;99.90
2757;DHT22;1386;50.862;6.494;2022-09-12T04:01:00;13.80;99.90
2757;DHT22;1386;50.862;6.494;2022-09-12T04:03:36;13.80;99.90
2757;DHT22;1386;50.862;6.494;2022-09-12T04:06:03;13.80;99.90
2757;DHT22;1386;50.862;6.494;2022-09-12T04:08:30;13.80;99.90
2757;DHT22;1386;50.862;6.494;2022-09-12T04:11:02;13.80;99.90
2757;DHT22;1386;50.862;6.494;2022-09-12T04:13:30;13.80;99.90
2757;DHT22;1386;50.862;6.494;2022-09-12T04:15:58;13.70;99.90
2757;DHT22;1386;50.862;6.494;2022-09-12T04:18:24;13.70;99.90
2757;DHT22;1386;50.862;6.494;2022-09-12T04:20:52;13.60;99.90
2757;DHT22;1386;50.862;6.494;2022-09-12T04:23:19;13.60;99.90
2757;DHT22;1386;50.862;6.494;2022-09-12T04:25:53;13.50;99.90
2757;DHT22;1386;50.862;6.494;2022-09-12T04:28:20;13.50;99.90
2757;DHT22;1386;50.862;6.494;2022-09-12T04:30:48;13.50;99.90
2757;DHT22;1386;50.862;6.494;2022-09-12T04:33:15;13.50;99.90
2757;DHT22;1386;50.862;6.494;2022-09-12T04:35:43;13.50;99.90
2757;DHT22;1386;50.862;6.494;2022-09-12T04:38:10;13.50;99.90
2757;DHT22;1386;50.862;6.494;2022-09-12T04:40:37;13.50;99.90
2757;DHT22;1386;50.862;6.494;2022-09-12T04:43:04;13.50;99.90
2757;DHT22;1386;50.862;6.494;2022-09-12T04:45:31;13.50;99.90
2757;DHT22;1386;50.862;6.494;2022-09-12T04:48:00;13.50;99.90
2757;DHT22;1386;50.862;6.494;2022-09-12T04:50:27;13.50;99.90
2757;DHT22;1386;50.862;6.494;2022-09-12T04:52:54;13.50;99.90
2757;DHT22;1386;50.862;6.494;2022-09-12T04:55:21;13.50;99.90
2757;DHT22;1386;50.862;6.494;2022-09-12T04:57:50;13.50;99.90
2757;DHT22;1386;50.862;6.494;2022-09-12T05:00:17;13.50;99.90
2757;DHT22;1386;50.862;6.494;2022-09-12T05:02:45;13.50;99.90
2757;DHT22;1386;50.862;6.494;2022-09-12T05:05:13;13.50;99.90
2757;DHT22;1386;50.862;6.494;2022-09-12T05:07:40;13.50;99.90
2757;DHT22;1386;50.862;6.494;2022-09-12T05:10:08;13.50;99.90
2757;DHT22;1386;50.862;6.494;2022-09-12T05:12:36;13.60;99.90
2757;DHT22;1386;50.862;6.494;2022-09-12T05:15:03;13.60;99.90
2757;DHT22;1386;50.862;6.494;2022-09-12T05:17:30;13.60;99.90
2757;DHT22;1386;50.862;6.494;2022-09-12T05:19:57;13.60;99.90
2757;DHT22;1386;50.862;6.494;2022-09-12T05:22:26;13.60;99.90
2757;DHT22;1386;50.862;6.494;2022-09-12T05:24:53;13.60;99.90
2757;DHT22;1386;50.862;6.494;2022-09-12T05:27:20;13.60;99.90
2757;DHT22;1386;50.862;6.494;2022-09-12T05:29:47;13.60;99.90
2757;DHT22;1386;50.862;6.494;2022-09-12T05:32:13;13.60;99.90
2757;DHT22;1386;50.862;6.494;2022-09-12T05:34:40;13.70;99.90
2757;DHT22;1386;50.862;6.494;2022-09-12T05:37:07;13.70;99.90
2757;DHT22;1386;50.862;6.494;2022-09-12T05:39:35;13.80;99.90
2757;DHT22;1386;50.862;6.494;2022-09-12T05:42:02;13.80;99.90
2757;DHT22;1386;50.862;6.494;2022-09-12T05:44:29;13.80;99.90
2757;DHT22;1386;50.862;6.494;2022-09-12T05:46:57;13.90;99.90
2757;DHT22;1386;50.862;6.494;2022-09-12T05:49:24;13.90;99.90
2757;DHT22;1386;50.862;6.494;2022-09-12T05:51:51;13.90;99.90
2757;DHT22;1386;50.862;6.494;2022-09-12T05:54:18;13.90;99.90
2757;DHT22;1386;50.862;6.494;2022-09-12T05:56:47;13.90;99.90
2757;DHT22;1386;50.862;6.494;2022-09-12T05:59:16;13.90;99.90
2757;DHT22;1386;50.862;6.494;2022-09-12T06:01:43;14.00;99.90
2757;DHT22;1386;50.862;6.494;2022-09-12T06:04:11;13.90;99.90
2757;DHT22;1386;50.862;6.494;2022-09-12T06:06:40;13.90;99.90
2757;DHT22;1386;50.862;6.494;2022-09-12T06:09:09;14.00;99.90
2757;DHT22;1386;50.862;6.494;2022-09-12T06:11:37;14.00;99.90
2757;DHT22;1386;50.862;6.494;2022-09-12T06:14:07;14.10;99.90
2757;DHT22;1386;50.862;6.494;2022-09-12T06:16:35;14.10;99.90
2757;DHT22;1386;50.862;6.494;2022-09-12T06:19:04;14.10;99.90
2757;DHT22;1386;50.862;6.494;2022-09-12T06:21:32;14.20;99.90
2757;DHT22;1386;50.862;6.494;2022-09-12T06:24:00;14.20;99.90
2757;DHT22;1386;50.862;6.494;2022-09-12T06:26:28;14.20;99.90
2757;DHT22;1386;50.862;6.494;2022-09-12T06:28:56;14.30;99.90
2757;DHT22;1386;50.862;6.494;2022-09-12T06:31:33;14.30;99.90
2757;DHT22;1386;50.862;6.494;2022-09-12T06:34:02;14.40;99.90
2757;DHT22;1386;50.862;6.494;2022-09-12T06:36:30;14.50;99.90
2757;DHT22;1386;50.862;6.494;2022-09-12T06:38:59;14.60;99.90
2757;DHT22;1386;50.862;6.494;2022-09-12T06:41:27;14.60;99.90
2757;DHT22;1386;50.862;6.494;2022-09-12T06:43:55;14.70;99.90
2757;DHT22;1386;50.862;6.494;2022-09-12T06:46:23;14.80;99.90
2757;DHT22;1386;50.862;6.494;2022-09-12T06:48:51;14.80;99.90
2757;DHT22;1386;50.862;6.494;2022-09-12T06:51:19;14.90;99.90
2757;DHT22;1386;50.862;6.494;2022-09-12T06:53:47;15.00;99.90
2757;DHT22;1386;50.862;6.494;2022-09-12T06:56:15;15.10;99.90
2757;DHT22;1386;50.862;6.494;2022-09-12T06:58:43;15.10;99.90
2757;DHT22;1386;50.862;6.494;2022-09-12T07:01:12;15.20;99.90
2757;DHT22;1386;50.862;6.494;2022-09-12T07:03:40;15.20;99.90
2757;DHT22;1386;50.862;6.494;2022-09-12T07:06:10;15.30;99.90
2757;DHT22;1386;50.862;6.494;2022-09-12T07:08:38;15.30;99.90
2757;DHT22;1386;50.862;6.494;2022-09-12T07:11:10;15.40;99.90
2757;DHT22;1386;50.862;6.494;2022-09-12T07:14:00;15.50;99.90
2757;DHT22;1386;50.862;6.494;2022-09-12T07:16:51;15.50;99.90
2757;DHT22;1386;50.862;6.494;2022-09-12T07:19:35;15.60;99.90
2757;DHT22;1386;50.862;6.494;2022-09-12T07:22:12;15.70;99.90
2757;DHT22;1386;50.862;6.494;2022-09-12T07:24:38;15.80;99.90
2757;DHT22;1386;50.862;6.494;2022-09-12T07:27:05;15.90;99.90
2757;DHT22;1386;50.862;6.494;2022-09-12T07:29:34;16.00;99.90
2757;DHT22;1386;50.862;6.494;2022-09-12T07:32:14;16.10;99.90
2757;DHT22;1386;50.862;6.494;2022-09-12T07:34:47;16.30;99.90
2757;DHT22;1386;50.862;6.494;2022-09-12T07:37:14;16.40;99.90
2757;DHT22;1386;50.862;6.494;2022-09-12T07:39:41;16.60;99.90
2757;DHT22;1386;50.862;6.494;2022-09-12T07:42:08;16.70;99.90
2757;DHT22;1386;50.862;6.494;2022-09-12T07:44:37;16.90;99.90
2757;DHT22;1386;50.862;6.494;2022-09-12T07:47:08;17.00;99.90
2757;DHT22;1386;50.862;6.494;2022-09-12T07:49:35;17.10;99.90
2757;DHT22;1386;50.862;6.494;2022-09-12T07:52:02;17.20;99.90
2757;DHT22;1386;50.862;6.494;2022-09-12T07:54:29;17.30;99.90
2757;DHT22;1386;50.862;6.494;2022-09-12T07:56:57;17.30;99.90
2757;DHT22;1386;50.862;6.494;2022-09-12T07:59:24;17.40;99.90
2757;DHT22;1386;50.862;6.494;2022-09-12T08:01:51;17.50;99.90
2757;DHT22;1386;50.862;6.494;2022-09-12T08:04:23;17.60;99.90
2757;DHT22;1386;50.862;6.494;2022-09-12T08:06:49;17.70;99.90
2757;DHT22;1386;50.862;6.494;2022-09-12T08:09:16;17.70;99.90
2757;DHT22;1386;50.862;6.494;2022-09-12T08:11:43;17.80;99.90
2757;DHT22;1386;50.862;6.494;2022-09-12T08:14:10;17.90;99.90
2757;DHT22;1386;50.862;6.494;2022-09-12T08:16:37;18.00;99.90
2757;DHT22;1386;50.862;6.494;2022-09-12T08:19:04;18.00;99.90
2757;DHT22;1386;50.862;6.494;2022-09-12T08:21:32;18.10;99.90
2757;DHT22;1386;50.862;6.494;2022-09-12T08:24:01;18.10;99.90
2757;DHT22;1386;50.862;6.494;2022-09-12T08:26:28;18.20;99.90
2757;DHT22;1386;50.862;6.494;2022-09-12T08:28:55;18.30;99.90
2757;DHT22;1386;50.862;6.494;2022-09-12T08:31:24;18.40;99.90
2757;DHT22;1386;50.862;6.494;2022-09-12T08:33:53;18.50;99.90
2757;DHT22;1386;50.862;6.494;2022-09-12T08:36:22;18.60;99.90
2757;DHT22;1386;50.862;6.494;2022-09-12T08:38:53;18.80;99.90
2757;DHT22;1386;50.862;6.494;2022-09-12T08:41:25;19.10;99.90
2757;DHT22;1386;50.862;6.494;2022-09-12T08:44:13;19.30;99.90
2757;DHT22;1386;50.862;6.494;2022-09-12T08:46:49;19.60;99.90
2757;DHT22;1386;50.862;6.494;2022-09-12T08:49:28;19.90;99.90
2757;DHT22;1386;50.862;6.494;2022-09-12T08:51:59;20.10;99.90
2757;DHT22;1386;50.862;6.494;2022-09-12T08:54:31;20.20;99.90
2757;DHT22;1386;50.862;6.494;2022-09-12T08:57:02;20.30;99.90
2757;DHT22;1386;50.862;6.494;2022-09-12T08:59:34;20.50;99.90
2757;DHT22;1386;50.862;6.494;2022-09-12T09:02:11;20.70;99.90
2757;DHT22;1386;50.862;6.494;2022-09-12T09:04:46;21.00;99.90
2757;DHT22;1386;50.862;6.494;2022-09-12T09:07:55;21.10;99.90
2757;DHT22;1386;50.862;6.494;2022-09-12T09:10:33;21.40;99.90
2757;DHT22;1386;50.862;6.494;2022-09-12T09:13:11;21.50;99.90
2757;DHT22;1386;50.862;6.494;2022-09-12T09:16:06;21.60;99.90
2757;DHT22;1386;50.862;6.494;2022-09-12T09:18:36;21.70;99.90
2757;DHT22;1386;50.862;6.494;2022-09-12T09:21:10;21.90;99.90
2757;DHT22;1386;50.862;6.494;2022-09-12T09:23:41;22.10;99.90
2757;DHT22;1386;50.862;6.494;2022-09-12T09:26:13;22.30;99.90
2757;DHT22;1386;50.862;6.494;2022-09-12T09:28:44;22.40;99.90
2757;DHT22;1386;50.862;6.494;2022-09-12T09:31:14;22.60;99.90
2757;DHT22;1386;50.862;6.494;2022-09-12T09:33:41;22.80;99.90
2757;DHT22;1386;50.862;6.494;2022-09-12T09:36:15;22.90;99.90
2757;DHT22;1386;50.862;6.494;2022-09-12T09:38:49;22.90;99.90
2757;DHT22;1386;50.862;6.494;2022-09-12T09:41:39;23.00;99.90
2757;DHT22;1386;50.862;6.494;2022-09-12T09:44:08;23.10;99.90
2757;DHT22;1386;50.862;6.494;2022-09-12T09:46:35;23.20;99.90
2757;DHT22;1386;50.862;6.494;2022-09-12T09:49:03;23.40;99.90
2757;DHT22;1386;50.862;6.494;2022-09-12T09:51:33;23.50;99.90
2757;DHT22;1386;50.862;6.494;2022-09-12T09:54:04;23.70;99.90
2757;DHT22;1386;50.862;6.494;2022-09-12T09:56:39;23.70;99.90
2757;DHT22;1386;50.862;6.494;2022-09-12T09:59:10;23.80;99.90
2757;DHT22;1386;50.862;6.494;2022-09-12T10:01:43;23.80;99.90
2757;DHT22;1386;50.862;6.494;2022-09-12T10:04:17;24.00;99.90
2757;DHT22;1386;50.862;6.494;2022-09-12T10:06:45;24.00;99.90
2757;DHT22;1386;50.862;6.494;2022-09-12T10:09:21;24.00;99.90
2757;DHT22;1386;50.862;6.494;2022-09-12T10:11:51;23.80;99.90
2757;DHT22;1386;50.862;6.494;2022-09-12T10:14:31;23.80;99.90
2757;DHT22;1386;50.862;6.494;2022-09-12T10:17:00;23.90;99.90
2757;DHT22;1386;50.862;6.494;2022-09-12T10:19:41;24.00;99.90
2757;DHT22;1386;50.862;6.494;2022-09-12T10:22:16;24.30;99.90
2757;DHT22;1386;50.862;6.494;2022-09-12T10:24:47;24.40;99.90
2757;DHT22;1386;50.862;6.494;2022-09-12T10:27:34;24.50;99.90
2757;DHT22;1386;50.862;6.494;2022-09-12T10:30:05;24.60;99.90
2757;DHT22;1386;50.862;6.494;2022-09-12T10:32:35;24.70;99.90
2757;DHT22;1386;50.862;6.494;2022-09-12T10:35:24;24.50;99.90
2757;DHT22;1386;50.862;6.494;2022-09-12T10:38:19;24.70;99.90
2757;DHT22;1386;50.862;6.494;2022-09-12T10:41:08;24.90;99.90
2757;DHT22;1386;50.862;6.494;2022-09-12T10:43:38;24.80;99.90
2757;DHT22;1386;50.862;6.494;2022-09-12T10:46:27;24.90;99.90
2757;DHT22;1386;50.862;6.494;2022-09-12T10:49:29;25.00;99.90
2757;DHT22;1386;50.862;6.494;2022-09-12T10:52:14;25.10;99.90
2757;DHT22;1386;50.862;6.494;2022-09-12T10:54:42;25.10;99.90
2757;DHT22;1386;50.862;6.494;2022-09-12T10:58:07;25.20;99.90
2757;DHT22;1386;50.862;6.494;2022-09-12T11:00:40;25.30;99.80
2757;DHT22;1386;50.862;6.494;2022-09-12T11:03:15;25.30;98.10
2757;DHT22;1386;50.862;6.494;2022-09-12T11:05:54;25.30;97.90
2757;DHT22;1386;50.862;6.494;2022-09-12T11:08:48;25.60;99.00
2757;DHT22;1386;50.862;6.494;2022-09-12T11:11:37;25.90;97.90
2757;DHT22;1386;50.862;6.494;2022-09-12T11:14:23;25.90;96.20
2757;DHT22;1386;50.862;6.494;2022-09-12T11:16:58;26.00;96.20
2757;DHT22;1386;50.862;6.494;2022-09-12T11:19:42;26.20;95.80
2757;DHT22;1386;50.862;6.494;2022-09-12T11:22:21;26.30;94.90
2757;DHT22;1386;50.862;6.494;2022-09-12T11:25:09;26.60;95.10
2757;DHT22;1386;50.862;6.494;2022-09-12T11:27:49;26.60;94.20
2757;DHT22;1386;50.862;6.494;2022-09-12T11:30:20;26.60;94.20
2757;DHT22;1386;50.862;6.494;2022-09-12T11:33:03;26.70;94.20
2757;DHT22;1386;50.862;6.494;2022-09-12T11:35:33;26.80;93.50
2757;DHT22;1386;50.862;6.494;2022-09-12T11:38:13;26.70;92.90
2757;DHT22;1386;50.862;6.494;2022-09-12T11:40:46;26.70;92.70
2757;DHT22;1386;50.862;6.494;2022-09-12T11:43:29;26.90;92.70
2757;DHT22;1386;50.862;6.494;2022-09-12T11:46:03;27.00;92.10
2757;DHT22;1386;50.862;6.494;2022-09-12T11:48:39;27.10;91.90
2757;DHT22;1386;50.862;6.494;2022-09-12T11:51:16;27.00;90.60
2757;DHT22;1386;50.862;6.494;2022-09-12T11:53:47;26.90;90.70
2757;DHT22;1386;50.862;6.494;2022-09-12T11:56:17;26.90;90.70
2757;DHT22;1386;50.862;6.494;2022-09-12T11:58:50;27.00;90.00
2757;DHT22;1386;50.862;6.494;2022-09-12T12:01:22;27.10;88.70
2757;DHT22;1386;50.862;6.494;2022-09-12T12:03:52;27.30;87.20
2757;DHT22;1386;50.862;6.494;2022-09-12T12:06:23;27.30;86.30
2757;DHT22;1386;50.862;6.494;2022-09-12T12:08:50;27.20;85.00
2757;DHT22;1386;50.862;6.494;2022-09-12T12:11:27;27.30;85.50
2757;DHT22;1386;50.862;6.494;2022-09-12T12:13:56;27.40;84.00
2757;DHT22;1386;50.862;6.494;2022-09-12T12:16:26;27.30;83.30
2757;DHT22;1386;50.862;6.494;2022-09-12T12:18:56;27.30;81.80
2757;DHT22;1386;50.862;6.494;2022-09-12T12:21:36;27.30;81.80
2757;DHT22;1386;50.862;6.494;2022-09-12T12:24:13;27.40;80.60
2757;DHT22;1386;50.862;6.494;2022-09-12T12:29:39;27.50;79.70
2757;DHT22;1386;50.862;6.494;2022-09-12T12:32:25;27.60;78.40
2757;DHT22;1386;50.862;6.494;2022-09-12T12:35:35;27.50;78.30
2757;DHT22;1386;50.862;6.494;2022-09-12T12:38:11;27.30;76.70
2757;DHT22;1386;50.862;6.494;2022-09-12T12:40:51;27.10;77.40
2757;DHT22;1386;50.862;6.494;2022-09-12T12:43:28;27.00;78.10
2757;DHT22;1386;50.862;6.494;2022-09-12T12:46:11;27.00;78.80
2757;DHT22;1386;50.862;6.494;2022-09-12T12:48:48;27.00;76.60
2757;DHT22;1386;50.862;6.494;2022-09-12T12:51:31;26.90;76.10
2757;DHT22;1386;50.862;6.494;2022-09-12T12:54:02;27.00;76.80
2757;DHT22;1386;50.862;6.494;2022-09-12T12:56:34;27.00;75.70
2757;DHT22;1386;50.862;6.494;2022-09-12T12:59:14;27.10;76.40
2757;DHT22;1386;50.862;6.494;2022-09-12T13:01:45;27.10;75.10
2757;DHT22;1386;50.862;6.494;2022-09-12T13:04:15;27.10;74.70
2757;DHT22;1386;50.862;6.494;2022-09-12T13:06:46;27.10;74.20
2757;DHT22;1386;50.862;6.494;2022-09-12T13:09:26;27.10;73.50
2757;DHT22;1386;50.862;6.494;2022-09-12T13:11:57;27.10;72.70
2757;DHT22;1386;50.862;6.494;2022-09-12T13:14:46;27.10;74.00
2757;DHT22;1386;50.862;6.494;2022-09-12T13:17:19;27.30;75.50
2757;DHT22;1386;50.862;6.494;2022-09-12T13:20:23;27.40;74.40
2757;DHT22;1386;50.862;6.494;2022-09-12T13:23:20;27.60;74.30
2757;DHT22;1386;50.862;6.494;2022-09-12T13:25:52;27.50;72.90
2757;DHT22;1386;50.862;6.494;2022-09-12T13:28:19;27.30;72.20
2757;DHT22;1386;50.862;6.494;2022-09-12T13:30:55;27.30;72.90
2757;DHT22;1386;50.862;6.494;2022-09-12T13:33:30;27.30;73.40
2757;DHT22;1386;50.862;6.494;2022-09-12T13:39:14;27.50;73.70
2757;DHT22;1386;50.862;6.494;2022-09-12T13:41:56;27.60;73.60
2757;DHT22;1386;50.862;6.494;2022-09-12T13:44:27;27.60;73.60
2757;DHT22;1386;50.862;6.494;2022-09-12T13:46:57;27.70;74.10
2757;DHT22;1386;50.862;6.494;2022-09-12T13:49:31;27.60;73.50
2757;DHT22;1386;50.862;6.494;2022-09-12T13:52:02;27.30;72.40
2757;DHT22;1386;50.862;6.494;2022-09-12T13:54:32;27.20;72.10
2757;DHT22;1386;50.862;6.494;2022-09-12T13:57:05;27.20;74.20
2757;DHT22;1386;50.862;6.494;2022-09-12T13:59:37;27.20;73.60
2757;DHT22;1386;50.862;6.494;2022-09-12T14:02:16;27.20;74.00
2757;DHT22;1386;50.862;6.494;2022-09-12T14:04:46;27.10;73.60
2757;DHT22;1386;50.862;6.494;2022-09-12T14:07:31;27.10;73.60
2757;DHT22;1386;50.862;6.494;2022-09-12T14:10:00;27.20;74.60
2757;DHT22;1386;50.862;6.494;2022-09-12T14:12:33;27.20;72.70
2757;DHT22;1386;50.862;6.494;2022-09-12T14:15:02;27.40;74.50
2757;DHT22;1386;50.862;6.494;2022-09-12T14:17:33;27.60;74.70
2757;DHT22;1386;50.862;6.494;2022-09-12T14:20:02;27.60;74.20
2757;DHT22;1386;50.862;6.494;2022-09-12T14:22:31;27.70;74.00
2757;DHT22;1386;50.862;6.494;2022-09-12T14:25:00;27.50;70.40
2757;DHT22;1386;50.862;6.494;2022-09-12T14:27:30;27.60;73.00
2757;DHT22;1386;50.862;6.494;2022-09-12T14:30:01;27.60;72.90
2757;DHT22;1386;50.862;6.494;2022-09-12T14:32:28;27.60;72.20
2757;DHT22;1386;50.862;6.494;2022-09-12T14:37:48;27.40;70.60
2757;DHT22;1386;50.862;6.494;2022-09-12T14:40:19;27.40;71.70
2757;DHT22;1386;50.862;6.494;2022-09-12T14:42:48;27.50;72.30
2757;DHT22;1386;50.862;6.494;2022-09-12T14:45:17;27.60;72.00
2757;DHT22;1386;50.862;6.494;2022-09-12T14:47:49;27.60;72.70
2757;DHT22;1386;50.862;6.494;2022-09-12T14:50:20;27.60;73.30
2757;DHT22;1386;50.862;6.494;2022-09-12T14:53:02;27.60;72.70
2757;DHT22;1386;50.862;6.494;2022-09-12T14:55:32;27.60;73.70
2757;DHT22;1386;50.862;6.494;2022-09-12T14:58:22;27.60;73.10
2757;DHT22;1386;50.862;6.494;2022-09-12T15:00:54;27.60;73.40
2757;DHT22;1386;50.862;6.494;2022-09-12T15:03:28;27.60;72.70
2757;DHT22;1386;50.862;6.494;2022-09-12T15:05:55;27.50;72.60
2757;DHT22;1386;50.862;6.494;2022-09-12T15:08:23;27.50;73.20
2757;DHT22;1386;50.862;6.494;2022-09-12T15:10:52;27.50;73.30
2757;DHT22;1386;50.862;6.494;2022-09-12T15:13:21;27.50;73.70
2757;DHT22;1386;50.862;6.494;2022-09-12T15:15:50;27.50;73.00
2757;DHT22;1386;50.862;6.494;2022-09-12T15:18:18;27.40;72.60
2757;DHT22;1386;50.862;6.494;2022-09-12T15:20:47;27.40;72.70
2757;DHT22;1386;50.862;6.494;2022-09-12T15:23:19;27.40;72.90
2757;DHT22;1386;50.862;6.494;2022-09-12T15:25:47;27.30;73.30
2757;DHT22;1386;50.862;6.494;2022-09-12T15:28:18;27.30;72.40
2757;DHT22;1386;50.862;6.494;2022-09-12T15:30:46;27.30;72.90
2757;DHT22;1386;50.862;6.494;2022-09-12T15:33:15;27.30;72.80
2757;DHT22;1386;50.862;6.494;2022-09-12T15:35:42;27.30;73.10
2757;DHT22;1386;50.862;6.494;2022-09-12T15:38:09;27.20;73.50
2757;DHT22;1386;50.862;6.494;2022-09-12T15:40:36;27.20;73.70
2757;DHT22;1386;50.862;6.494;2022-09-12T15:43:03;27.10;74.30
2757;DHT22;1386;50.862;6.494;2022-09-12T15:45:32;27.10;75.30
2757;DHT22;1386;50.862;6.494;2022-09-12T15:48:00;27.10;75.70
2757;DHT22;1386;50.862;6.494;2022-09-12T15:50:31;27.10;76.30
2757;DHT22;1386;50.862;6.494;2022-09-12T15:52:58;27.00;76.10
2757;DHT22;1386;50.862;6.494;2022-09-12T15:55:28;27.00;75.30
2757;DHT22;1386;50.862;6.494;2022-09-12T15:57:56;26.90;76.50
2757;DHT22;1386;50.862;6.494;2022-09-12T16:00:24;27.00;76.90
2757;DHT22;1386;50.862;6.494;2022-09-12T16:02:53;26.90;76.80
2757;DHT22;1386;50.862;6.494;2022-09-12T16:05:23;26.90;76.80
2757;DHT22;1386;50.862;6.494;2022-09-12T16:07:51;26.90;76.80
2757;DHT22;1386;50.862;6.494;2022-09-12T16:10:20;26.80;76.00
2757;DHT22;1386;50.862;6.494;2022-09-12T16:12:47;26.80;76.40
2757;DHT22;1386;50.862;6.494;2022-09-12T16:15:16;26.80;76.10
2757;DHT22;1386;50.862;6.494;2022-09-12T16:17:43;26.80;75.90
2757;DHT22;1386;50.862;6.494;2022-09-12T16:20:27;26.80;75.90
2757;DHT22;1386;50.862;6.494;2022-09-12T16:23:01;26.70;77.00
2757;DHT22;1386;50.862;6.494;2022-09-12T16:25:28;26.70;76.20
2757;DHT22;1386;50.862;6.494;2022-09-12T16:27:55;26.70;75.00
2757;DHT22;1386;50.862;6.494;2022-09-12T16:30:23;26.60;75.60
2757;DHT22;1386;50.862;6.494;2022-09-12T16:32:51;26.60;76.00
2757;DHT22;1386;50.862;6.494;2022-09-12T16:35:18;26.50;75.20
2757;DHT22;1386;50.862;6.494;2022-09-12T16:37:46;26.50;76.30
2757;DHT22;1386;50.862;6.494;2022-09-12T16:40:13;26.40;76.80
2757;DHT22;1386;50.862;6.494;2022-09-12T16:42:42;26.40;76.60
2757;DHT22;1386;50.862;6.494;2022-09-12T16:45:10;26.40;76.30
2757;DHT22;1386;50.862;6.494;2022-09-12T16:47:36;26.30;75.00
2757;DHT22;1386;50.862;6.494;2022-09-12T16:50:04;26.30;74.40
2757;DHT22;1386;50.862;6.494;2022-09-12T16:52:33;26.30;74.80
2757;DHT22;1386;50.862;6.494;2022-09-12T16:55:01;26.20;75.20
2757;DHT22;1386;50.862;6.494;2022-09-12T16:57:28;26.20;74.60
2757;DHT22;1386;50.862;6.494;2022-09-12T16:59:55;26.20;74.90
2757;DHT22;1386;50.862;6.494;2022-09-12T17:02:21;26.20;75.60
2757;DHT22;1386;50.862;6.494;2022-09-12T17:04:48;26.10;76.30
2757;DHT22;1386;50.862;6.494;2022-09-12T17:07:17;26.10;77.30
2757;DHT22;1386;50.862;6.494;2022-09-12T17:09:44;26.00;78.20
2757;DHT22;1386;50.862;6.494;2022-09-12T17:12:16;26.00;79.00
2757;DHT22;1386;50.862;6.494;2022-09-12T17:14:46;26.00;79.60
2757;DHT22;1386;50.862;6.494;2022-09-12T17:17:12;26.00;80.40
2757;DHT22;1386;50.862;6.494;2022-09-12T17:19:39;25.90;81.00
2757;DHT22;1386;50.862;6.494;2022-09-12T17:22:07;25.80;82.40
2757;DHT22;1386;50.862;6.494;2022-09-12T17:24:34;25.80;84.10
2757;DHT22;1386;50.862;6.494;2022-09-12T17:27:01;25.70;84.30
2757;DHT22;1386;50.862;6.494;2022-09-12T17:29:35;25.70;84.60
2757;DHT22;1386;50.862;6.494;2022-09-12T17:32:03;25.60;84.10
2757;DHT22;1386;50.862;6.494;2022-09-12T17:34:32;25.50;83.90
2757;DHT22;1386;50.862;6.494;2022-09-12T17:36:59;25.30;84.00
2757;DHT22;1386;50.862;6.494;2022-09-12T17:39:26;25.30;84.10